sensor_id;sensor_type;location;lat;lon;timestamp;pressure;altitude;pressure_sealevel;temperature;humidity
19884;BME280;10104;50.732;10.174;2023-06-19T00:02:08;97462.22;;;23.75;46.72
19884;BME280;10104;50.732;10.174;2023-06-19T00:04:29;97456.88;;;23.65;46.39
19884;BME280;10104;50.732;10.174;2023-06-19T00:06:51;97463.41;;;23.59;48.48
19884;BME280;10104;50.732;10.174;2023-06-19T00:09:12;97458.91;;;23.45;49.83
19884;BME280;10104;50.732;10.174;2023-06-19T00:11:34;97457.78;;;23.56;48.44
19884;BME280;10104;50.732;10.174;2023-06-19T00:13:56;97452.66;;;23.54;48.49
19884;BME280;10104;50.732;10.174;2023-06-19T00:16:17;97453.69;;;23.58;47.99
19884;BME280;10104;50.732;10.174;2023-06-19T00:18:40;97453.91;;;23.67;47.63
19884;BME280;10104;50.732;10.174;2023-06-19T00:21:02;97453.69;;;23.63;47.82
19884;BME280;10104;50.732;10.174;2023-06-19T00:23:27;97453.91;;;23.67;47.83
19884;BME280;10104;50.732;10.174;2023-06-19T00:25:48;97458.56;;;23.61;48.17
19884;BME280;10104;50.732;10.174;2023-06-19T00:28:10;97449.06;;;23.64;48.92
19884;BME280;10104;50.732;10.174;2023-06-19T00:30:35;97455.41;;;23.44;47.61
19884;BME280;10104;50.732;10.174;2023-06-19T00:32:56;97454.66;;;23.38;46.37
19884;BME280;10104;50.732;10.174;2023-06-19T00:35:18;97452.53;;;23.30;49.65
19884;BME280;10104;50.732;10.174;2023-06-19T00:37:40;97458.00;;;23.20;50.44
19884;BME280;10104;50.732;10.174;2023-06-19T00:40:07;97457.41;;;23.28;49.37
19884;BME280;10104;50.732;10.174;2023-06-19T00:42:31;97461.16;;;23.32;49.52
19884;BME280;10104;50.732;10.174;2023-06-19T00:44:53;97453.28;;;23.36;49.06
19884;BME280;10104;50.732;10.174;2023-06-19T00:47:14;97457.03;;;23.40;48.58
19884;BME280;10104;50.732;10.174;2023-06-19T00:49:36;97457.63;;;23.37;48.60
19884;BME280;10104;50.732;10.174;2023-06-19T00:51:57;97466.56;;;23.32;50.49
19884;BME280;10104;50.732;10.174;2023-06-19T00:54:20;97462.44;;;23.40;49.13
19884;BME280;10104;50.732;10.174;2023-06-19T00:56:42;97464.03;;;23.46;48.94
19884;BME280;10104;50.732;10.174;2023-06-19T00:59:06;97461.63;;;23.50;47.74
19884;BME280;10104;50.732;10.174;2023-06-19T01:01:29;97462.97;;;23.47;47.78
19884;BME280;10104;50.732;10.174;2023-06-19T01:03:50;97458.88;;;23.55;46.47
19884;BME280;10104;50.732;10.174;2023-06-19T01:06:23;97459.41;;;23.57;46.87
19884;BME280;10104;50.732;10.174;2023-06-19T01:11:18;97444.28;;;23.56;47.47
19884;BME280;10104;50.732;10.174;2023-06-19T01:13:52;97445.84;;;23.62;47.79
19884;BME280;10104;50.732;10.174;2023-06-19T01:16:17;97445.34;;;23.55;47.72
19884;BME280;10104;50.732;10.174;2023-06-19T01:18:40;97443.38;;;23.65;46.50
19884;BME280;10104;50.732;10.174;2023-06-19T01:21:12;97435.41;;;23.45;48.35
19884;BME280;10104;50.732;10.174;2023-06-19T01:23:34;97437.56;;;23.48;48.43
19884;BME280;10104;50.732;10.174;2023-06-19T01:25:55;97432.69;;;23.50;48.25
19884;BME280;10104;50.732;10.174;2023-06-19T01:28:16;97437.53;;;23.53;48.66
19884;BME280;10104;50.732;10.174;2023-06-19T01:30:40;97442.56;;;23.21;49.74
19884;BME280;10104;50.732;10.174;2023-06-19T01:35:32;97432.31;;;23.23;50.28
19884;BME280;10104;50.732;10.174;2023-06-19T01:37:54;97436.69;;;23.14;51.37
19884;BME280;10104;50.732;10.174;2023-06-19T01:40:17;97436.41;;;23.15;50.58
19884;BME280;10104;50.732;10.174;2023-06-19T01:42:43;97428.28;;;23.20;49.85
19884;BME280;10104;50.732;10.174;2023-06-19T01:45:05;97423.59;;;23.31;50.03
19884;BME280;10104;50.732;10.174;2023-06-19T01:47:28;97427.09;;;23.36;49.64
19884;BME280;10104;50.732;10.174;2023-06-19T01:49:49;97421.47;;;23.28;49.70
19884;BME280;10104;50.732;10.174;2023-06-19T01:52:11;97422.31;;;23.23;49.98
19884;BME280;10104;50.732;10.174;2023-06-19T01:54:32;97421.25;;;23.19;49.91
19884;BME280;10104;50.732;10.174;2023-06-19T01:56:54;97426.44;;;23.11;50.96
19884;BME280;10104;50.732;10.174;2023-06-19T01:59:15;97424.31;;;23.08;51.02
19884;BME280;10104;50.732;10.174;2023-06-19T02:01:37;97420.31;;;23.00;51.11
19884;BME280;10104;50.732;10.174;2023-06-19T02:03:58;97415.25;;;22.88;51.61
19884;BME280;10104;50.732;10.174;2023-06-19T02:06:20;97423.06;;;22.85;51.40
19884;BME280;10104;50.732;10.174;2023-06-19T02:08:42;97421.44;;;22.89;51.09
19884;BME280;10104;50.732;10.174;2023-06-19T02:11:04;97417.88;;;22.98;50.68
19884;BME280;10104;50.732;10.174;2023-06-19T02:13:25;97418.22;;;22.87;49.87
19884;BME280;10104;50.732;10.174;2023-06-19T02:15:47;97413.91;;;22.86;50.35
19884;BME280;10104;50.732;10.174;2023-06-19T02:18:08;97412.81;;;22.87;50.69
19884;BME280;10104;50.732;10.174;2023-06-19T02:20:30;97412.63;;;22.63;52.80
19884;BME280;10104;50.732;10.174;2023-06-19T02:22:52;97411.56;;;22.64;52.88
19884;BME280;10104;50.732;10.174;2023-06-19T02:25:13;97416.66;;;22.66;52.49
19884;BME280;10104;50.732;10.174;2023-06-19T02:27:35;97413.69;;;22.72;52.15
19884;BME280;10104;50.732;10.174;2023-06-19T02:29:56;97402.88;;;22.77;52.05
19884;BME280;10104;50.732;10.174;2023-06-19T02:32:18;97407.97;;;22.79;51.86
19884;BME280;10104;50.732;10.174;2023-06-19T02:34:39;97410.53;;;22.50;53.00
19884;BME280;10104;50.732;10.174;2023-06-19T02:37:01;97403.78;;;22.52;53.15
19884;BME280;10104;50.732;10.174;2023-06-19T02:39:23;97399.94;;;22.64;52.54
19884;BME280;10104;50.732;10.174;2023-06-19T02:41:45;97396.94;;;22.70;52.47
19884;BME280;10104;50.732;10.174;2023-06-19T02:44:08;97398.38;;;22.47;52.87
19884;BME280;10104;50.732;10.174;2023-06-19T02:46:29;97396.28;;;22.39;53.46
19884;BME280;10104;50.732;10.174;2023-06-19T02:48:51;97404.06;;;22.51;53.21
19884;BME280;10104;50.732;10.174;2023-06-19T02:51:12;97400.81;;;22.49;53.63
19884;BME280;10104;50.732;10.174;2023-06-19T02:53:34;97399.72;;;22.50;52.99
19884;BME280;10104;50.732;10.174;2023-06-19T02:55:55;97398.66;;;22.51;52.04
19884;BME280;10104;50.732;10.174;2023-06-19T02:58:17;97407.38;;;22.33;50.62
19884;BME280;10104;50.732;10.174;2023-06-19T03:00:38;97406.81;;;22.36;51.47
19884;BME280;10104;50.732;10.174;2023-06-19T03:03:00;97407.66;;;22.16;53.41
19884;BME280;10104;50.732;10.174;2023-06-19T03:05:22;97410.59;;;22.30;51.94
19884;BME280;10104;50.732;10.174;2023-06-19T03:07:44;97406.81;;;22.31;51.70
19884;BME280;10104;50.732;10.174;2023-06-19T03:10:06;97415.41;;;22.43;51.54
19884;BME280;10104;50.732;10.174;2023-06-19T03:12:27;97416.75;;;22.45;51.44
19884;BME280;10104;50.732;10.174;2023-06-19T03:14:49;97417.81;;;22.49;51.91
19884;BME280;10104;50.732;10.174;2023-06-19T03:17:11;97417.53;;;22.51;52.00
19884;BME280;10104;50.732;10.174;2023-06-19T03:19:33;97415.66;;;22.51;52.53
19884;BME280;10104;50.732;10.174;2023-06-19T03:21:55;97418.38;;;22.46;52.38
19884;BME280;10104;50.732;10.174;2023-06-19T03:24:17;97425.94;;;22.44;52.73
19884;BME280;10104;50.732;10.174;2023-06-19T03:26:38;97415.66;;;22.51;52.55
19884;BME280;10104;50.732;10.174;2023-06-19T03:29:00;97418.31;;;22.62;52.15
19884;BME280;10104;50.732;10.174;2023-06-19T03:31:21;97416.47;;;22.52;53.45
19884;BME280;10104;50.732;10.174;2023-06-19T03:33:43;97421.88;;;22.52;52.83
19884;BME280;10104;50.732;10.174;2023-06-19T03:36:05;97414.81;;;22.56;52.56
19884;BME280;10104;50.732;10.174;2023-06-19T03:38:27;97406.19;;;22.54;52.36
19884;BME280;10104;50.732;10.174;2023-06-19T03:40:48;97405.91;;;22.55;52.03
19884;BME280;10104;50.732;10.174;2023-06-19T03:43:10;97395.19;;;22.45;49.76
19884;BME280;10104;50.732;10.174;2023-06-19T03:45:32;97403.03;;;22.32;48.90
19884;BME280;10104;50.732;10.174;2023-06-19T03:47:53;97396.28;;;22.34;48.12
19884;BME280;10104;50.732;10.174;2023-06-19T03:50:15;97401.16;;;22.32;47.91
19884;BME280;10104;50.732;10.174;2023-06-19T03:52:51;97397.47;;;22.08;52.34
19884;BME280;10104;50.732;10.174;2023-06-19T03:55:12;97398.97;;;22.34;51.55
19884;BME280;10104;50.732;10.174;2023-06-19T03:57:34;97398.88;;;22.59;50.79
19884;BME280;10104;50.732;10.174;2023-06-19T03:59:56;97404.75;;;22.82;49.82
19884;BME280;10104;50.732;10.174;2023-06-19T04:02:17;97410.34;;;22.95;49.30
19884;BME280;10104;50.732;10.174;2023-06-19T04:04:39;97417.81;;;23.09;48.31
19884;BME280;10104;50.732;10.174;2023-06-19T04:07:00;97414.28;;;23.13;48.22
19884;BME280;10104;50.732;10.174;2023-06-19T04:09:22;97414.50;;;23.17;47.95
19884;BME280;10104;50.732;10.174;2023-06-19T04:11:43;97419.09;;;23.16;48.93
19884;BME280;10104;50.732;10.174;2023-06-19T04:14:05;97420.06;;;23.35;48.99
19884;BME280;10104;50.732;10.174;2023-06-19T04:16:26;97420.78;;;23.51;49.33
19884;BME280;10104;50.732;10.174;2023-06-19T04:18:48;97410.59;;;23.38;49.26
19884;BME280;10104;50.732;10.174;2023-06-19T04:21:09;97417.03;;;23.47;48.17
19884;BME280;10104;50.732;10.174;2023-06-19T04:23:31;97412.22;;;23.39;47.22
19884;BME280;10104;50.732;10.174;2023-06-19T04:25:52;97425.94;;;23.48;48.13
19884;BME280;10104;50.732;10.174;2023-06-19T04:28:14;97422.31;;;23.62;47.47
19884;BME280;10104;50.732;10.174;2023-06-19T04:30:35;97423.31;;;23.71;46.99
19884;BME280;10104;50.732;10.174;2023-06-19T04:33:00;97425.94;;;23.82;47.04
19884;BME280;10104;50.732;10.174;2023-06-19T04:35:22;97425.03;;;23.91;45.77
19884;BME280;10104;50.732;10.174;2023-06-19T04:37:45;97433.19;;;23.86;45.93
19884;BME280;10104;50.732;10.174;2023-06-19T04:40:07;97422.81;;;23.69;44.07
19884;BME280;10104;50.732;10.174;2023-06-19T04:42:29;97423.50;;;23.80;44.26
19884;BME280;10104;50.732;10.174;2023-06-19T04:44:50;97425.63;;;23.83;43.07
19884;BME280;10104;50.732;10.174;2023-06-19T04:47:13;97422.66;;;23.56;40.88
19884;BME280;10104;50.732;10.174;2023-06-19T04:49:34;97437.56;;;23.48;40.63
19884;BME280;10104;50.732;10.174;2023-06-19T04:51:57;97439.38;;;23.58;40.78
19884;BME280;10104;50.732;10.174;2023-06-19T04:54:18;97428.22;;;23.64;41.12
19884;BME280;10104;50.732;10.174;2023-06-19T04:56:40;97433.91;;;23.68;40.27
19884;BME280;10104;50.732;10.174;2023-06-19T04:59:01;97443.84;;;23.72;40.79
19884;BME280;10104;50.732;10.174;2023-06-19T05:01:23;97448.22;;;23.68;39.97
19884;BME280;10104;50.732;10.174;2023-06-19T05:03:49;97453.91;;;23.67;40.90
19884;BME280;10104;50.732;10.174;2023-06-19T05:06:10;97462.06;;;23.62;41.46
19884;BME280;10104;50.732;10.174;2023-06-19T05:08:32;97460.66;;;23.69;41.29
19884;BME280;10104;50.732;10.174;2023-06-19T05:10:54;97458.72;;;23.75;41.73
19884;BME280;10104;50.732;10.174;2023-06-19T05:13:16;97465.81;;;24.00;42.04
19884;BME280;10104;50.732;10.174;2023-06-19T05:15:39;97457.47;;;24.25;41.95
19884;BME280;10104;50.732;10.174;2023-06-19T05:18:01;97449.91;;;24.46;41.62
19884;BME280;10104;50.732;10.174;2023-06-19T05:20:22;97445.31;;;24.46;42.07
19884;BME280;10104;50.732;10.174;2023-06-19T05:22:44;97462.53;;;24.32;43.32
19884;BME280;10104;50.732;10.174;2023-06-19T05:25:06;97452.81;;;24.54;42.82
19884;BME280;10104;50.732;10.174;2023-06-19T05:27:28;97468.38;;;24.68;42.71
19884;BME280;10104;50.732;10.174;2023-06-19T05:29:50;97465.44;;;24.83;42.16
19884;BME280;10104;50.732;10.174;2023-06-19T05:32:11;97474.34;;;24.65;43.70
19884;BME280;10104;50.732;10.174;2023-06-19T05:34:33;97477.22;;;24.73;43.76
19884;BME280;10104;50.732;10.174;2023-06-19T05:36:54;97471.41;;;24.85;43.80
19884;BME280;10104;50.732;10.174;2023-06-19T05:39:15;97483.75;;;24.96;43.20
19884;BME280;10104;50.732;10.174;2023-06-19T05:41:41;97481.19;;;25.05;43.55
19884;BME280;10104;50.732;10.174;2023-06-19T05:44:03;97480.69;;;25.21;42.52
19884;BME280;10104;50.732;10.174;2023-06-19T05:46:24;97491.38;;;25.31;42.39
19884;BME280;10104;50.732;10.174;2023-06-19T05:48:47;97487.28;;;25.34;41.99
19884;BME280;10104;50.732;10.174;2023-06-19T05:51:08;97497.25;;;25.38;42.28
19884;BME280;10104;50.732;10.174;2023-06-19T05:53:30;97500.47;;;25.22;42.05
19884;BME280;10104;50.732;10.174;2023-06-19T05:55:53;97502.97;;;25.37;42.97
19884;BME280;10104;50.732;10.174;2023-06-19T05:58:14;97497.63;;;25.51;43.36
19884;BME280;10104;50.732;10.174;2023-06-19T06:00:36;97493.81;;;25.70;43.37
19884;BME280;10104;50.732;10.174;2023-06-19T06:02:57;97499.31;;;25.84;42.91
19884;BME280;10104;50.732;10.174;2023-06-19T06:05:22;97495.16;;;26.05;42.15
19884;BME280;10104;50.732;10.174;2023-06-19T06:07:46;97498.25;;;26.31;39.93
19884;BME280;10104;50.732;10.174;2023-06-19T06:10:08;97504.09;;;26.38;40.05
19884;BME280;10104;50.732;10.174;2023-06-19T06:12:29;97510.66;;;26.18;39.26
19884;BME280;10104;50.732;10.174;2023-06-19T06:14:51;97503.53;;;26.41;38.56
19884;BME280;10104;50.732;10.174;2023-06-19T06:17:12;97511.53;;;26.33;38.76
19884;BME280;10104;50.732;10.174;2023-06-19T06:19:34;97508.63;;;26.29;38.88
19884;BME280;10104;50.732;10.174;2023-06-19T06:21:55;97517.97;;;26.37;39.01
19884;BME280;10104;50.732;10.174;2023-06-19T06:24:17;97515.78;;;25.88;40.75
19884;BME280;10104;50.732;10.174;2023-06-19T06:26:39;97510.28;;;25.93;40.63
19884;BME280;10104;50.732;10.174;2023-06-19T06:29:00;97511.41;;;25.92;40.77
19884;BME280;10104;50.732;10.174;2023-06-19T06:31:23;97516.91;;;25.87;41.53
19884;BME280;10104;50.732;10.174;2023-06-19T06:33:44;97520.34;;;25.92;42.04
19884;BME280;10104;50.732;10.174;2023-06-19T06:36:06;97519.72;;;25.63;42.57
19884;BME280;10104;50.732;10.174;2023-06-19T06:38:29;97522.72;;;25.61;42.51
19884;BME280;10104;50.732;10.174;2023-06-19T06:40:50;97528.56;;;25.68;43.07
19884;BME280;10104;50.732;10.174;2023-06-19T06:43:13;97537.47;;;25.50;42.99
19884;BME280;10104;50.732;10.174;2023-06-19T06:45:34;97537.16;;;25.57;44.45
19884;BME280;10104;50.732;10.174;2023-06-19T06:47:58;97536.78;;;25.63;43.59
19884;BME280;10104;50.732;10.174;2023-06-19T06:50:20;97537.44;;;25.74;43.67
19884;BME280;10104;50.732;10.174;2023-06-19T06:52:42;97544.34;;;25.66;43.80
19884;BME280;10104;50.732;10.174;2023-06-19T06:55:04;97544.34;;;25.66;44.29
19884;BME280;10104;50.732;10.174;2023-06-19T06:57:26;97545.78;;;25.40;45.45
19884;BME280;10104;50.732;10.174;2023-06-19T06:59:47;97540.53;;;25.25;46.16
19884;BME280;10104;50.732;10.174;2023-06-19T07:02:09;97545.75;;;25.21;46.14
19884;BME280;10104;50.732;10.174;2023-06-19T07:04:31;97548.31;;;25.31;46.03
19884;BME280;10104;50.732;10.174;2023-06-19T07:06:53;97556.44;;;24.89;46.65
19884;BME280;10104;50.732;10.174;2023-06-19T07:09:14;97551.75;;;24.94;47.49
19884;BME280;10104;50.732;10.174;2023-06-19T07:11:38;97549.00;;;25.23;47.06
19884;BME280;10104;50.732;10.174;2023-06-19T07:14:02;97560.41;;;25.20;47.89
19884;BME280;10104;50.732;10.174;2023-06-19T07:16:23;97559.97;;;25.32;46.72
19884;BME280;10104;50.732;10.174;2023-06-19T07:18:45;97562.94;;;25.35;47.08
19884;BME280;10104;50.732;10.174;2023-06-19T07:21:11;97568.84;;;25.37;47.81
19884;BME280;10104;50.732;10.174;2023-06-19T07:23:34;97558.16;;;25.46;47.85
19884;BME280;10104;50.732;10.174;2023-06-19T07:25:58;97568.59;;;25.58;48.10
19884;BME280;10104;50.732;10.174;2023-06-19T07:28:19;97555.72;;;26.19;47.16
19884;BME280;10104;50.732;10.174;2023-06-19T07:30:41;97561.44;;;26.37;46.14
19884;BME280;10104;50.732;10.174;2023-06-19T07:33:02;97564.38;;;26.54;46.05
19884;BME280;10104;50.732;10.174;2023-06-19T07:35:24;97571.69;;;26.72;45.61
19884;BME280;10104;50.732;10.174;2023-06-19T07:37:45;97569.44;;;26.74;45.74
19884;BME280;10104;50.732;10.174;2023-06-19T07:40:07;97557.53;;;27.03;44.65
19884;BME280;10104;50.732;10.174;2023-06-19T07:42:29;97570.00;;;27.04;44.33
19884;BME280;10104;50.732;10.174;2023-06-19T07:44:50;97565.06;;;27.19;45.19
19884;BME280;10104;50.732;10.174;2023-06-19T07:47:12;97577.34;;;27.30;44.87
19884;BME280;10104;50.732;10.174;2023-06-19T07:49:35;97578.25;;;27.40;43.84
19884;BME280;10104;50.732;10.174;2023-06-19T07:51:57;97578.94;;;27.59;44.10
19884;BME280;10104;50.732;10.174;2023-06-19T07:54:18;97573.25;;;28.05;43.98
19884;BME280;10104;50.732;10.174;2023-06-19T07:56:40;97578.63;;;28.32;42.29
19884;BME280;10104;50.732;10.174;2023-06-19T07:59:02;97588.56;;;28.14;42.93
19884;BME280;10104;50.732;10.174;2023-06-19T08:01:26;97578.03;;;28.22;43.47
19884;BME280;10104;50.732;10.174;2023-06-19T08:03:47;97579.91;;;28.88;43.15
19884;BME280;10104;50.732;10.174;2023-06-19T08:06:09;97572.41;;;28.71;42.10
19884;BME280;10104;50.732;10.174;2023-06-19T08:08:31;97583.28;;;28.63;42.22
19884;BME280;10104;50.732;10.174;2023-06-19T08:10:52;97577.84;;;28.93;42.43
19884;BME280;10104;50.732;10.174;2023-06-19T08:13:14;97573.91;;;28.77;42.83
19884;BME280;10104;50.732;10.174;2023-06-19T08:15:35;97580.81;;;29.14;42.54
19884;BME280;10104;50.732;10.174;2023-06-19T08:17:57;97581.34;;;28.85;41.80
19884;BME280;10104;50.732;10.174;2023-06-19T08:20:20;97573.53;;;29.01;42.02
19884;BME280;10104;50.732;10.174;2023-06-19T08:22:42;97563.00;;;28.77;43.36
19884;BME280;10104;50.732;10.174;2023-06-19T08:25:04;97575.38;;;28.83;43.60
19884;BME280;10104;50.732;10.174;2023-06-19T08:27:26;97569.22;;;29.00;42.53
19884;BME280;10104;50.732;10.174;2023-06-19T08:29:47;97578.22;;;29.09;42.51
19884;BME280;10104;50.732;10.174;2023-06-19T08:32:09;97567.91;;;28.98;43.07
19884;BME280;10104;50.732;10.174;2023-06-19T08:34:30;97566.50;;;29.09;41.78
19884;BME280;10104;50.732;10.174;2023-06-19T08:36:52;97563.97;;;29.21;42.11
19884;BME280;10104;50.732;10.174;2023-06-19T08:39:13;97561.22;;;29.60;41.75
19884;BME280;10104;50.732;10.174;2023-06-19T08:41:38;97562.38;;;30.11;40.60
19884;BME280;10104;50.732;10.174;2023-06-19T08:44:00;97569.88;;;29.88;40.90
19884;BME280;10104;50.732;10.174;2023-06-19T08:46:21;97557.38;;;29.79;40.93
19884;BME280;10104;50.732;10.174;2023-06-19T08:48:43;97556.72;;;29.56;41.83
19884;BME280;10104;50.732;10.174;2023-06-19T08:51:05;97573.72;;;29.53;41.93
19884;BME280;10104;50.732;10.174;2023-06-19T08:53:27;97572.00;;;30.00;41.99
19884;BME280;10104;50.732;10.174;2023-06-19T08:55:49;97567.31;;;30.26;41.05
19884;BME280;10104;50.732;10.174;2023-06-19T08:58:21;97562.66;;;30.35;40.41
19884;BME280;10104;50.732;10.174;2023-06-19T09:00:47;97569.88;;;30.57;40.48
19884;BME280;10104;50.732;10.174;2023-06-19T09:03:08;97575.41;;;30.86;40.14
19884;BME280;10104;50.732;10.174;2023-06-19T09:05:36;97567.75;;;30.71;39.76
19884;BME280;10104;50.732;10.174;2023-06-19T09:08:02;97565.25;;;31.33;39.33
19884;BME280;10104;50.732;10.174;2023-06-19T09:10:24;97565.25;;;30.87;40.18
19884;BME280;10104;50.732;10.174;2023-06-19T09:13:02;97571.69;;;30.91;39.17
19884;BME280;10104;50.732;10.174;2023-06-19T09:15:30;97554.91;;;30.46;39.61
19884;BME280;10104;50.732;10.174;2023-06-19T09:18:06;97549.94;;;30.48;39.49
19884;BME280;10104;50.732;10.174;2023-06-19T09:20:29;97550.47;;;30.24;41.04
19884;BME280;10104;50.732;10.174;2023-06-19T09:22:54;97553.34;;;30.36;40.96
19884;BME280;10104;50.732;10.174;2023-06-19T09:25:16;97563.13;;;30.54;41.01
19884;BME280;10104;50.732;10.174;2023-06-19T09:27:39;97566.06;;;30.15;40.84
19884;BME280;10104;50.732;10.174;2023-06-19T09:30:01;97561.84;;;30.35;41.10
19884;BME280;10104;50.732;10.174;2023-06-19T09:32:27;97562.97;;;30.25;40.52
19884;BME280;10104;50.732;10.174;2023-06-19T09:34:56;97556.72;;;30.33;40.73
19884;BME280;10104;50.732;10.174;2023-06-19T09:37:23;97557.50;;;30.42;40.39
19884;BME280;10104;50.732;10.174;2023-06-19T09:39:46;97554.50;;;30.82;40.36
19884;BME280;10104;50.732;10.174;2023-06-19T09:42:10;97552.66;;;30.57;41.45
19884;BME280;10104;50.732;10.174;2023-06-19T09:44:37;97557.75;;;30.75;41.87
19884;BME280;10104;50.732;10.174;2023-06-19T09:47:15;97554.06;;;30.80;40.87
19884;BME280;10104;50.732;10.174;2023-06-19T09:49:40;97551.81;;;31.11;40.52
19884;BME280;10104;50.732;10.174;2023-06-19T09:52:02;97554.31;;;31.25;40.16
19884;BME280;10104;50.732;10.174;2023-06-19T09:54:25;97554.78;;;30.98;39.97
19884;BME280;10104;50.732;10.174;2023-06-19T09:56:47;97562.50;;;30.95;40.58
19884;BME280;10104;50.732;10.174;2023-06-19T09:59:12;97562.25;;;31.18;39.50
19884;BME280;10104;50.732;10.174;2023-06-19T10:01:35;97562.31;;;31.01;39.79
19884;BME280;10104;50.732;10.174;2023-06-19T10:04:06;97562.81;;;30.94;40.47
19884;BME280;10104;50.732;10.174;2023-06-19T10:06:28;97553.94;;;31.06;39.93
19884;BME280;10104;50.732;10.174;2023-06-19T10:08:51;97557.13;;;30.70;40.25
19884;BME280;10104;50.732;10.174;2023-06-19T10:11:13;97557.63;;;30.72;40.44
19884;BME280;10104;50.732;10.174;2023-06-19T10:13:37;97543.09;;;31.18;40.70
19884;BME280;10104;50.732;10.174;2023-06-19T10:16:00;97556.72;;;31.56;40.66
19884;BME280;10104;50.732;10.174;2023-06-19T10:18:22;97550.16;;;31.48;39.29
19884;BME280;10104;50.732;10.174;2023-06-19T10:20:46;97559.97;;;31.49;39.15
19884;BME280;10104;50.732;10.174;2023-06-19T10:23:15;97556.50;;;31.90;38.84
19884;BME280;10104;50.732;10.174;2023-06-19T10:25:41;97562.50;;;32.58;38.96
19884;BME280;10104;50.732;10.174;2023-06-19T10:28:25;97566.88;;;32.38;39.09
19884;BME280;10104;50.732;10.174;2023-06-19T10:33:27;97563.69;;;32.69;38.65
19884;BME280;10104;50.732;10.174;2023-06-19T10:35:49;97567.66;;;32.72;38.24
19884;BME280;10104;50.732;10.174;2023-06-19T10:38:10;97568.72;;;32.79;37.87
19884;BME280;10104;50.732;10.174;2023-06-19T10:40:36;97572.22;;;32.35;38.74
19884;BME280;10104;50.732;10.174;2023-06-19T10:42:58;97569.31;;;32.19;38.30
19884;BME280;10104;50.732;10.174;2023-06-19T10:45:20;97573.09;;;32.15;38.35
19884;BME280;10104;50.732;10.174;2023-06-19T10:47:42;97577.00;;;32.26;38.71
19884;BME280;10104;50.732;10.174;2023-06-19T10:50:14;97566.75;;;31.72;39.71
19884;BME280;10104;50.732;10.174;2023-06-19T10:52:36;97563.06;;;32.10;38.63
19884;BME280;10104;50.732;10.174;2023-06-19T10:55:00;97564.09;;;32.05;38.97
19884;BME280;10104;50.732;10.174;2023-06-19T10:57:29;97558.28;;;32.07;39.62
19884;BME280;10104;50.732;10.174;2023-06-19T10:59:51;97564.00;;;32.35;38.25
19884;BME280;10104;50.732;10.174;2023-06-19T11:02:13;97565.03;;;32.09;39.29
19884;BME280;10104;50.732;10.174;2023-06-19T11:04:37;97557.88;;;32.71;37.85
19884;BME280;10104;50.732;10.174;2023-06-19T11:07:04;97564.44;;;33.51;36.63
19884;BME280;10104;50.732;10.174;2023-06-19T11:09:26;97567.75;;;33.97;36.67
19884;BME280;10104;50.732;10.174;2023-06-19T11:11:48;97560.94;;;34.19;35.03
19884;BME280;10104;50.732;10.174;2023-06-19T11:14:11;97556.97;;;34.44;35.68
19884;BME280;10104;50.732;10.174;2023-06-19T11:16:34;97563.88;;;34.54;35.01
19884;BME280;10104;50.732;10.174;2023-06-19T11:18:57;97558.66;;;34.64;34.63
19884;BME280;10104;50.732;10.174;2023-06-19T11:21:18;97559.31;;;34.73;33.82
19884;BME280;10104;50.732;10.174;2023-06-19T11:23:40;97555.53;;;35.60;33.61
19884;BME280;10104;50.732;10.174;2023-06-19T11:26:05;97554.97;;;35.86;32.23
19884;BME280;10104;50.732;10.174;2023-06-19T11:28:27;97561.91;;;34.82;34.15
19884;BME280;10104;50.732;10.174;2023-06-19T11:30:58;97563.34;;;35.93;32.95
19884;BME280;10104;50.732;10.174;2023-06-19T11:33:21;97561.84;;;35.95;32.72
19884;BME280;10104;50.732;10.174;2023-06-19T11:35:53;97555.25;;;35.65;33.12
19884;BME280;10104;50.732;10.174;2023-06-19T11:38:20;97549.72;;;35.14;34.06
19884;BME280;10104;50.732;10.174;2023-06-19T11:40:43;97554.53;;;35.02;33.53
19884;BME280;10104;50.732;10.174;2023-06-19T11:43:04;97564.53;;;35.92;33.21
19884;BME280;10104;50.732;10.174;2023-06-19T11:45:25;97554.06;;;36.59;30.72
19884;BME280;10104;50.732;10.174;2023-06-19T11:47:49;97555.94;;;36.55;30.59
19884;BME280;10104;50.732;10.174;2023-06-19T11:50:11;97557.22;;;37.25;30.91
19884;BME280;10104;50.732;10.174;2023-06-19T11:52:33;97548.53;;;38.10;30.23
19884;BME280;10104;50.732;10.174;2023-06-19T11:54:54;97547.59;;;39.06;28.76
19884;BME280;10104;50.732;10.174;2023-06-19T11:57:16;97546.50;;;39.21;28.32
19884;BME280;10104;50.732;10.174;2023-06-19T11:59:41;97547.38;;;39.29;28.22
19884;BME280;10104;50.732;10.174;2023-06-19T12:02:03;97554.78;;;38.70;28.91
19884;BME280;10104;50.732;10.174;2023-06-19T12:04:25;97552.72;;;37.40;30.44
19884;BME280;10104;50.732;10.174;2023-06-19T12:06:47;97545.88;;;38.17;29.95
19884;BME280;10104;50.732;10.174;2023-06-19T12:09:08;97543.53;;;37.89;29.83
19884;BME280;10104;50.732;10.174;2023-06-19T12:11:31;97551.63;;;37.48;29.21
19884;BME280;10104;50.732;10.174;2023-06-19T12:13:52;97546.84;;;36.54;30.92
19884;BME280;10104;50.732;10.174;2023-06-19T12:16:15;97542.38;;;37.11;30.57
19884;BME280;10104;50.732;10.174;2023-06-19T12:18:36;97549.72;;;37.03;30.73
19884;BME280;10104;50.732;10.174;2023-06-19T12:20:58;97541.66;;;37.14;30.32
19884;BME280;10104;50.732;10.174;2023-06-19T12:23:19;97529.75;;;37.62;30.16
19884;BME280;10104;50.732;10.174;2023-06-19T12:25:41;97537.09;;;36.37;30.63
19884;BME280;10104;50.732;10.174;2023-06-19T12:28:02;97533.66;;;37.09;31.00
19884;BME280;10104;50.732;10.174;2023-06-19T12:30:29;97539.53;;;37.86;31.02
19884;BME280;10104;50.732;10.174;2023-06-19T12:32:51;97550.00;;;38.33;29.37
19884;BME280;10104;50.732;10.174;2023-06-19T12:35:12;97533.56;;;37.84;29.37